sensor_id;sensor_type;location;lat;lon;timestamp;P1;durP1;ratioP1;P2;durP2;ratioP2
20623;SDS011;10471;42.736;23.346;2023-12-29T00:01:30;238.07;;;101.97;;
20623;SDS011;10471;42.736;23.346;2023-12-29T00:03:56;236.87;;;100.50;;
20623;SDS011;10471;42.736;23.346;2023-12-29T00:06:21;229.20;;;104.07;;
20623;SDS011;10471;42.736;23.346;2023-12-29T00:08:47;218.43;;;102.17;;
20623;SDS011;10471;42.736;23.346;2023-12-29T00:11:21;223.80;;;101.53;;
20623;SDS011;10471;42.736;23.346;2023-12-29T00:13:47;208.77;;;95.73;;
20623;SDS011;10471;42.736;23.346;2023-12-29T00:16:14;186.80;;;90.93;;
20623;SDS011;10471;42.736;23.346;2023-12-29T00:18:40;194.03;;;90.30;;
20623;SDS011;10471;42.736;23.346;2023-12-29T00:21:06;196.73;;;92.43;;
20623;SDS011;10471;42.736;23.346;2023-12-29T00:23:31;242.80;;;96.73;;
20623;SDS011;10471;42.736;23.346;2023-12-29T00:25:56;243.57;;;98.40;;
20623;SDS011;10471;42.736;23.346;2023-12-29T00:28:22;226.10;;;97.47;;
20623;SDS011;10471;42.736;23.346;2023-12-29T00:30:47;213.10;;;91.70;;
20623;SDS011;10471;42.736;23.346;2023-12-29T00:33:13;188.13;;;90.97;;
20623;SDS011;10471;42.736;23.346;2023-12-29T00:35:38;199.50;;;90.37;;
20623;SDS011;10471;42.736;23.346;2023-12-29T00:38:06;240.27;;;95.03;;
20623;SDS011;10471;42.736;23.346;2023-12-29T00:40:32;244.10;;;99.10;;
20623;SDS011;10471;42.736;23.346;2023-12-29T00:42:59;240.77;;;102.57;;
20623;SDS011;10471;42.736;23.346;2023-12-29T00:45:27;235.00;;;106.00;;
20623;SDS011;10471;42.736;23.346;2023-12-29T00:47:58;210.27;;;91.97;;
20623;SDS011;10471;42.736;23.346;2023-12-29T00:50:24;225.10;;;94.23;;
20623;SDS011;10471;42.736;23.346;2023-12-29T00:52:51;225.10;;;91.03;;
20623;SDS011;10471;42.736;23.346;2023-12-29T00:55:17;262.67;;;91.30;;
20623;SDS011;10471;42.736;23.346;2023-12-29T00:57:42;296.43;;;88.57;;
20623;SDS011;10471;42.736;23.346;2023-12-29T01:00:07;263.80;;;86.87;;
20623;SDS011;10471;42.736;23.346;2023-12-29T01:02:36;379.97;;;100.07;;
20623;SDS011;10471;42.736;23.346;2023-12-29T01:05:01;430.07;;;103.83;;
20623;SDS011;10471;42.736;23.346;2023-12-29T01:07:27;272.97;;;93.50;;
20623;SDS011;10471;42.736;23.346;2023-12-29T01:09:52;406.97;;;112.80;;
20623;SDS011;10471;42.736;23.346;2023-12-29T01:12:17;463.93;;;125.30;;
20623;SDS011;10471;42.736;23.346;2023-12-29T01:14:43;572.97;;;137.87;;
20623;SDS011;10471;42.736;23.346;2023-12-29T01:17:08;400.20;;;98.03;;
20623;SDS011;10471;42.736;23.346;2023-12-29T01:19:33;444.67;;;122.20;;
20623;SDS011;10471;42.736;23.346;2023-12-29T01:21:59;530.37;;;134.87;;
20623;SDS011;10471;42.736;23.346;2023-12-29T01:24:24;289.23;;;90.90;;
20623;SDS011;10471;42.736;23.346;2023-12-29T01:26:50;277.50;;;92.43;;
20623;SDS011;10471;42.736;23.346;2023-12-29T01:29:15;330.00;;;104.77;;
20623;SDS011;10471;42.736;23.346;2023-12-29T01:31:40;317.37;;;107.33;;
20623;SDS011;10471;42.736;23.346;2023-12-29T01:34:06;322.57;;;114.23;;
20623;SDS011;10471;42.736;23.346;2023-12-29T01:36:31;422.43;;;132.90;;
20623;SDS011;10471;42.736;23.346;2023-12-29T01:38:57;409.00;;;126.87;;
20623;SDS011;10471;42.736;23.346;2023-12-29T01:41:22;438.33;;;138.13;;
20623;SDS011;10471;42.736;23.346;2023-12-29T01:44:33;444.33;;;135.37;;
20623;SDS011;10471;42.736;23.346;2023-12-29T01:46:44;296.40;;;118.03;;
20623;SDS011;10471;42.736;23.346;2023-12-29T01:49:13;304.13;;;123.87;;
20623;SDS011;10471;42.736;23.346;2023-12-29T01:51:41;323.97;;;141.27;;
20623;SDS011;10471;42.736;23.346;2023-12-29T01:54:07;318.50;;;134.63;;
20623;SDS011;10471;42.736;23.346;2023-12-29T01:56:33;301.30;;;132.07;;
20623;SDS011;10471;42.736;23.346;2023-12-29T01:58:59;305.27;;;131.60;;
20623;SDS011;10471;42.736;23.346;2023-12-29T02:01:25;287.33;;;125.70;;
20623;SDS011;10471;42.736;23.346;2023-12-29T02:03:51;272.17;;;121.83;;
20623;SDS011;10471;42.736;23.346;2023-12-29T02:06:17;256.47;;;114.13;;
20623;SDS011;10471;42.736;23.346;2023-12-29T02:08:44;235.43;;;104.43;;
20623;SDS011;10471;42.736;23.346;2023-12-29T02:11:10;235.83;;;104.23;;
20623;SDS011;10471;42.736;23.346;2023-12-29T02:13:35;220.03;;;98.83;;
20623;SDS011;10471;42.736;23.346;2023-12-29T02:16:04;208.47;;;94.23;;
20623;SDS011;10471;42.736;23.346;2023-12-29T02:18:34;193.93;;;91.07;;
20623;SDS011;10471;42.736;23.346;2023-12-29T02:21:02;175.23;;;84.33;;
20623;SDS011;10471;42.736;23.346;2023-12-29T02:23:28;196.20;;;86.53;;
20623;SDS011;10471;42.736;23.346;2023-12-29T02:25:55;180.33;;;85.77;;
20623;SDS011;10471;42.736;23.346;2023-12-29T02:28:24;180.87;;;82.27;;
20623;SDS011;10471;42.736;23.346;2023-12-29T02:33:22;182.70;;;71.77;;
20623;SDS011;10471;42.736;23.346;2023-12-29T02:35:51;166.57;;;69.60;;
20623;SDS011;10471;42.736;23.346;2023-12-29T02:38:17;200.77;;;70.23;;
20623;SDS011;10471;42.736;23.346;2023-12-29T02:40:43;224.70;;;74.67;;
20623;SDS011;10471;42.736;23.346;2023-12-29T02:43:09;192.50;;;67.90;;
20623;SDS011;10471;42.736;23.346;2023-12-29T02:45:34;193.73;;;67.97;;
20623;SDS011;10471;42.736;23.346;2023-12-29T02:48:00;186.93;;;63.77;;
20623;SDS011;10471;42.736;23.346;2023-12-29T02:50:26;173.07;;;63.67;;
20623;SDS011;10471;42.736;23.346;2023-12-29T02:52:51;200.00;;;64.93;;
20623;SDS011;10471;42.736;23.346;2023-12-29T02:55:16;190.80;;;65.50;;
20623;SDS011;10471;42.736;23.346;2023-12-29T02:57:42;170.63;;;63.93;;
20623;SDS011;10471;42.736;23.346;2023-12-29T03:00:07;193.23;;;62.37;;
20623;SDS011;10471;42.736;23.346;2023-12-29T03:02:33;147.60;;;64.87;;
20623;SDS011;10471;42.736;23.346;2023-12-29T03:04:59;153.33;;;66.13;;
20623;SDS011;10471;42.736;23.346;2023-12-29T03:07:24;154.17;;;69.77;;
20623;SDS011;10471;42.736;23.346;2023-12-29T03:09:50;140.77;;;64.97;;
20623;SDS011;10471;42.736;23.346;2023-12-29T03:12:15;135.63;;;63.63;;
20623;SDS011;10471;42.736;23.346;2023-12-29T03:14:40;125.70;;;64.60;;
20623;SDS011;10471;42.736;23.346;2023-12-29T03:17:06;191.03;;;63.50;;
20623;SDS011;10471;42.736;23.346;2023-12-29T03:19:31;196.20;;;67.60;;
20623;SDS011;10471;42.736;23.346;2023-12-29T03:21:57;196.53;;;79.87;;
20623;SDS011;10471;42.736;23.346;2023-12-29T03:24:22;163.80;;;69.63;;
20623;SDS011;10471;42.736;23.346;2023-12-29T03:26:47;193.23;;;72.77;;
20623;SDS011;10471;42.736;23.346;2023-12-29T03:29:13;161.40;;;69.10;;
20623;SDS011;10471;42.736;23.346;2023-12-29T03:31:38;150.10;;;63.40;;
20623;SDS011;10471;42.736;23.346;2023-12-29T03:34:04;191.23;;;59.33;;
20623;SDS011;10471;42.736;23.346;2023-12-29T03:36:30;205.13;;;61.73;;
20623;SDS011;10471;42.736;23.346;2023-12-29T03:38:55;267.10;;;64.70;;
20623;SDS011;10471;42.736;23.346;2023-12-29T03:41:21;188.93;;;62.07;;
20623;SDS011;10471;42.736;23.346;2023-12-29T03:43:46;243.47;;;62.17;;
20623;SDS011;10471;42.736;23.346;2023-12-29T03:46:18;202.53;;;64.57;;
20623;SDS011;10471;42.736;23.346;2023-12-29T03:48:44;196.07;;;64.07;;
20623;SDS011;10471;42.736;23.346;2023-12-29T03:51:10;229.10;;;68.17;;
20623;SDS011;10471;42.736;23.346;2023-12-29T03:53:36;173.07;;;64.60;;
20623;SDS011;10471;42.736;23.346;2023-12-29T03:56:07;178.17;;;69.77;;
20623;SDS011;10471;42.736;23.346;2023-12-29T03:58:34;158.43;;;68.23;;
20623;SDS011;10471;42.736;23.346;2023-12-29T04:01:00;182.80;;;74.60;;
20623;SDS011;10471;42.736;23.346;2023-12-29T04:03:26;189.80;;;72.87;;
20623;SDS011;10471;42.736;23.346;2023-12-29T04:05:51;157.03;;;71.23;;
20623;SDS011;10471;42.736;23.346;2023-12-29T04:08:17;173.57;;;72.70;;
20623;SDS011;10471;42.736;23.346;2023-12-29T04:10:42;222.70;;;76.90;;
20623;SDS011;10471;42.736;23.346;2023-12-29T04:13:07;194.13;;;75.20;;
20623;SDS011;10471;42.736;23.346;2023-12-29T04:15:33;216.67;;;75.33;;
20623;SDS011;10471;42.736;23.346;2023-12-29T04:17:58;208.97;;;77.70;;
20623;SDS011;10471;42.736;23.346;2023-12-29T04:20:24;207.47;;;82.57;;
20623;SDS011;10471;42.736;23.346;2023-12-29T04:22:49;214.70;;;81.37;;
20623;SDS011;10471;42.736;23.346;2023-12-29T04:25:15;189.17;;;78.53;;
20623;SDS011;10471;42.736;23.346;2023-12-29T04:27:40;179.70;;;72.97;;
20623;SDS011;10471;42.736;23.346;2023-12-29T04:30:06;190.90;;;77.97;;
20623;SDS011;10471;42.736;23.346;2023-12-29T04:32:32;191.40;;;70.10;;
20623;SDS011;10471;42.736;23.346;2023-12-29T04:34:57;177.10;;;67.73;;
20623;SDS011;10471;42.736;23.346;2023-12-29T04:37:22;153.33;;;65.50;;
20623;SDS011;10471;42.736;23.346;2023-12-29T04:39:48;196.63;;;70.73;;
20623;SDS011;10471;42.736;23.346;2023-12-29T04:42:13;225.23;;;73.60;;
20623;SDS011;10471;42.736;23.346;2023-12-29T04:44:38;191.87;;;73.67;;
20623;SDS011;10471;42.736;23.346;2023-12-29T04:47:04;179.77;;;70.10;;
20623;SDS011;10471;42.736;23.346;2023-12-29T04:49:29;176.33;;;72.90;;
20623;SDS011;10471;42.736;23.346;2023-12-29T04:51:55;243.67;;;83.83;;
20623;SDS011;10471;42.736;23.346;2023-12-29T04:54:20;209.33;;;74.37;;
20623;SDS011;10471;42.736;23.346;2023-12-29T04:56:45;202.57;;;76.03;;
20623;SDS011;10471;42.736;23.346;2023-12-29T04:59:11;229.57;;;77.77;;
20623;SDS011;10471;42.736;23.346;2023-12-29T05:01:36;213.13;;;78.00;;
20623;SDS011;10471;42.736;23.346;2023-12-29T05:04:01;252.20;;;91.33;;
20623;SDS011;10471;42.736;23.346;2023-12-29T05:06:27;267.20;;;96.47;;
20623;SDS011;10471;42.736;23.346;2023-12-29T05:08:52;287.33;;;122.40;;
20623;SDS011;10471;42.736;23.346;2023-12-29T05:11:17;250.37;;;105.67;;
20623;SDS011;10471;42.736;23.346;2023-12-29T05:13:43;293.60;;;124.10;;
20623;SDS011;10471;42.736;23.346;2023-12-29T05:16:09;298.10;;;128.87;;
20623;SDS011;10471;42.736;23.346;2023-12-29T05:18:34;306.00;;;131.17;;
20623;SDS011;10471;42.736;23.346;2023-12-29T05:21:00;235.27;;;95.53;;
20623;SDS011;10471;42.736;23.346;2023-12-29T05:23:25;230.17;;;94.30;;
20623;SDS011;10471;42.736;23.346;2023-12-29T05:25:51;209.77;;;85.47;;
20623;SDS011;10471;42.736;23.346;2023-12-29T05:28:16;205.27;;;81.63;;
20623;SDS011;10471;42.736;23.346;2023-12-29T05:30:42;191.77;;;77.83;;
20623;SDS011;10471;42.736;23.346;2023-12-29T05:33:07;175.13;;;74.90;;
20623;SDS011;10471;42.736;23.346;2023-12-29T05:35:33;193.93;;;74.53;;
20623;SDS011;10471;42.736;23.346;2023-12-29T05:37:58;171.60;;;70.73;;
20623;SDS011;10471;42.736;23.346;2023-12-29T05:40:23;168.10;;;75.67;;
20623;SDS011;10471;42.736;23.346;2023-12-29T05:42:49;167.83;;;77.70;;
20623;SDS011;10471;42.736;23.346;2023-12-29T05:45:17;182.67;;;77.50;;
20623;SDS011;10471;42.736;23.346;2023-12-29T05:47:43;200.63;;;80.50;;
20623;SDS011;10471;42.736;23.346;2023-12-29T05:50:08;163.20;;;75.60;;
20623;SDS011;10471;42.736;23.346;2023-12-29T05:52:34;178.13;;;80.17;;
20623;SDS011;10471;42.736;23.346;2023-12-29T05:54:59;152.50;;;75.47;;
20623;SDS011;10471;42.736;23.346;2023-12-29T05:57:24;201.17;;;81.67;;
20623;SDS011;10471;42.736;23.346;2023-12-29T05:59:50;235.07;;;85.30;;
20623;SDS011;10471;42.736;23.346;2023-12-29T06:02:15;235.67;;;84.63;;
20623;SDS011;10471;42.736;23.346;2023-12-29T06:04:40;224.13;;;84.97;;
20623;SDS011;10471;42.736;23.346;2023-12-29T06:07:06;244.37;;;91.07;;
20623;SDS011;10471;42.736;23.346;2023-12-29T06:09:31;223.50;;;85.27;;
20623;SDS011;10471;42.736;23.346;2023-12-29T06:11:57;254.17;;;87.90;;
20623;SDS011;10471;42.736;23.346;2023-12-29T06:14:22;232.40;;;81.00;;
20623;SDS011;10471;42.736;23.346;2023-12-29T06:16:47;225.07;;;78.67;;
20623;SDS011;10471;42.736;23.346;2023-12-29T06:19:13;269.93;;;84.33;;
20623;SDS011;10471;42.736;23.346;2023-12-29T06:21:42;265.43;;;85.53;;
20623;SDS011;10471;42.736;23.346;2023-12-29T06:24:10;348.33;;;99.03;;
20623;SDS011;10471;42.736;23.346;2023-12-29T06:26:36;300.93;;;97.20;;
20623;SDS011;10471;42.736;23.346;2023-12-29T06:29:07;293.07;;;112.73;;
20623;SDS011;10471;42.736;23.346;2023-12-29T06:31:33;220.97;;;91.93;;
20623;SDS011;10471;42.736;23.346;2023-12-29T06:33:59;159.63;;;73.03;;
20623;SDS011;10471;42.736;23.346;2023-12-29T06:36:25;162.43;;;69.10;;
20623;SDS011;10471;42.736;23.346;2023-12-29T06:38:51;180.50;;;66.43;;
20623;SDS011;10471;42.736;23.346;2023-12-29T06:41:17;195.60;;;77.43;;
20623;SDS011;10471;42.736;23.346;2023-12-29T06:43:43;269.10;;;82.97;;
20623;SDS011;10471;42.736;23.346;2023-12-29T06:46:09;245.63;;;84.33;;
20623;SDS011;10471;42.736;23.346;2023-12-29T06:48:34;245.20;;;82.80;;
20623;SDS011;10471;42.736;23.346;2023-12-29T06:51:01;279.87;;;84.97;;
20623;SDS011;10471;42.736;23.346;2023-12-29T06:53:26;245.87;;;80.27;;
20623;SDS011;10471;42.736;23.346;2023-12-29T06:55:52;229.07;;;78.47;;
20623;SDS011;10471;42.736;23.346;2023-12-29T06:58:17;255.57;;;86.07;;
20623;SDS011;10471;42.736;23.346;2023-12-29T07:00:43;222.53;;;79.50;;
20623;SDS011;10471;42.736;23.346;2023-12-29T07:03:08;214.87;;;87.93;;
20623;SDS011;10471;42.736;23.346;2023-12-29T07:05:34;224.50;;;86.90;;
20623;SDS011;10471;42.736;23.346;2023-12-29T07:07:59;205.90;;;79.17;;
20623;SDS011;10471;42.736;23.346;2023-12-29T07:10:25;171.20;;;70.30;;
20623;SDS011;10471;42.736;23.346;2023-12-29T07:12:50;166.50;;;64.80;;
20623;SDS011;10471;42.736;23.346;2023-12-29T07:15:15;164.40;;;67.80;;
20623;SDS011;10471;42.736;23.346;2023-12-29T07:17:44;179.63;;;64.57;;
20623;SDS011;10471;42.736;23.346;2023-12-29T07:20:09;231.83;;;80.87;;
20623;SDS011;10471;42.736;23.346;2023-12-29T07:22:35;196.23;;;72.47;;
20623;SDS011;10471;42.736;23.346;2023-12-29T07:25:00;278.10;;;110.50;;
20623;SDS011;10471;42.736;23.346;2023-12-29T07:27:26;194.40;;;92.43;;
20623;SDS011;10471;42.736;23.346;2023-12-29T07:29:51;188.13;;;75.13;;
20623;SDS011;10471;42.736;23.346;2023-12-29T07:32:16;171.57;;;65.90;;
20623;SDS011;10471;42.736;23.346;2023-12-29T07:34:42;159.60;;;60.10;;
20623;SDS011;10471;42.736;23.346;2023-12-29T07:37:09;127.50;;;51.57;;
20623;SDS011;10471;42.736;23.346;2023-12-29T07:39:35;180.93;;;64.00;;
20623;SDS011;10471;42.736;23.346;2023-12-29T07:42:02;131.03;;;50.87;;
20623;SDS011;10471;42.736;23.346;2023-12-29T07:44:27;131.77;;;42.63;;
20623;SDS011;10471;42.736;23.346;2023-12-29T07:46:53;148.23;;;49.33;;
20623;SDS011;10471;42.736;23.346;2023-12-29T07:49:18;151.43;;;49.77;;
20623;SDS011;10471;42.736;23.346;2023-12-29T07:51:46;160.73;;;47.47;;
20623;SDS011;10471;42.736;23.346;2023-12-29T07:54:12;134.93;;;50.40;;
20623;SDS011;10471;42.736;23.346;2023-12-29T07:56:37;139.33;;;48.27;;
20623;SDS011;10471;42.736;23.346;2023-12-29T07:59:03;132.13;;;56.03;;
20623;SDS011;10471;42.736;23.346;2023-12-29T08:01:28;113.90;;;51.97;;
20623;SDS011;10471;42.736;23.346;2023-12-29T08:03:54;173.17;;;51.87;;
20623;SDS011;10471;42.736;23.346;2023-12-29T08:06:19;114.27;;;49.43;;
20623;SDS011;10471;42.736;23.346;2023-12-29T08:08:45;112.03;;;49.47;;
20623;SDS011;10471;42.736;23.346;2023-12-29T08:11:17;119.27;;;49.07;;
20623;SDS011;10471;42.736;23.346;2023-12-29T08:13:43;123.47;;;47.63;;
20623;SDS011;10471;42.736;23.346;2023-12-29T08:16:09;106.27;;;44.50;;
20623;SDS011;10471;42.736;23.346;2023-12-29T08:18:35;115.77;;;45.43;;
20623;SDS011;10471;42.736;23.346;2023-12-29T08:21:00;118.93;;;47.27;;
20623;SDS011;10471;42.736;23.346;2023-12-29T08:23:26;110.07;;;43.00;;
20623;SDS011;10471;42.736;23.346;2023-12-29T08:25:52;113.03;;;42.43;;
20623;SDS011;10471;42.736;23.346;2023-12-29T08:28:17;110.67;;;41.23;;
20623;SDS011;10471;42.736;23.346;2023-12-29T08:30:43;91.73;;;42.73;;
20623;SDS011;10471;42.736;23.346;2023-12-29T08:33:10;104.70;;;40.50;;
20623;SDS011;10471;42.736;23.346;2023-12-29T08:35:37;135.77;;;46.47;;
20623;SDS011;10471;42.736;23.346;2023-12-29T08:38:03;111.70;;;43.50;;
20623;SDS011;10471;42.736;23.346;2023-12-29T08:40:29;124.17;;;45.17;;
20623;SDS011;10471;42.736;23.346;2023-12-29T08:42:54;116.47;;;45.63;;
20623;SDS011;10471;42.736;23.346;2023-12-29T08:45:20;114.30;;;47.47;;
20623;SDS011;10471;42.736;23.346;2023-12-29T08:47:45;120.77;;;48.23;;
20623;SDS011;10471;42.736;23.346;2023-12-29T08:50:10;120.53;;;51.60;;
20623;SDS011;10471;42.736;23.346;2023-12-29T08:52:36;162.23;;;61.97;;
20623;SDS011;10471;42.736;23.346;2023-12-29T08:55:01;138.87;;;62.23;;
20623;SDS011;10471;42.736;23.346;2023-12-29T08:57:27;136.83;;;60.73;;
20623;SDS011;10471;42.736;23.346;2023-12-29T08:59:52;115.87;;;54.77;;
20623;SDS011;10471;42.736;23.346;2023-12-29T09:02:18;143.83;;;62.90;;
20623;SDS011;10471;42.736;23.346;2023-12-29T09:04:43;124.27;;;58.73;;
20623;SDS011;10471;42.736;23.346;2023-12-29T09:07:09;123.03;;;56.97;;
20623;SDS011;10471;42.736;23.346;2023-12-29T09:09:34;137.93;;;62.77;;
20623;SDS011;10471;42.736;23.346;2023-12-29T09:11:59;128.80;;;63.63;;
20623;SDS011;10471;42.736;23.346;2023-12-29T09:14:25;128.10;;;60.77;;
20623;SDS011;10471;42.736;23.346;2023-12-29T09:16:50;125.10;;;60.17;;
20623;SDS011;10471;42.736;23.346;2023-12-29T09:19:16;123.73;;;60.47;;
20623;SDS011;10471;42.736;23.346;2023-12-29T09:21:41;116.73;;;59.37;;
20623;SDS011;10471;42.736;23.346;2023-12-29T09:24:06;109.97;;;56.37;;
20623;SDS011;10471;42.736;23.346;2023-12-29T09:26:32;106.97;;;58.33;;
20623;SDS011;10471;42.736;23.346;2023-12-29T09:28:57;864.07;;;364.90;;
20623;SDS011;10471;42.736;23.346;2023-12-29T09:31:22;128.57;;;66.30;;
20623;SDS011;10471;42.736;23.346;2023-12-29T09:33:48;103.10;;;54.60;;
20623;SDS011;10471;42.736;23.346;2023-12-29T09:36:13;138.90;;;56.93;;
20623;SDS011;10471;42.736;23.346;2023-12-29T09:38:38;99.43;;;51.37;;
20623;SDS011;10471;42.736;23.346;2023-12-29T09:41:04;83.47;;;44.03;;
20623;SDS011;10471;42.736;23.346;2023-12-29T09:43:34;90.13;;;45.17;;
20623;SDS011;10471;42.736;23.346;2023-12-29T09:46:01;81.60;;;43.90;;
20623;SDS011;10471;42.736;23.346;2023-12-29T09:48:28;80.33;;;44.73;;
20623;SDS011;10471;42.736;23.346;2023-12-29T09:50:56;74.37;;;41.87;;
20623;SDS011;10471;42.736;23.346;2023-12-29T09:53:22;82.07;;;43.27;;
20623;SDS011;10471;42.736;23.346;2023-12-29T09:55:48;79.93;;;43.67;;
20623;SDS011;10471;42.736;23.346;2023-12-29T09:58:15;86.47;;;44.63;;
20623;SDS011;10471;42.736;23.346;2023-12-29T10:00:43;81.07;;;46.83;;
20623;SDS011;10471;42.736;23.346;2023-12-29T10:03:11;86.57;;;48.13;;
20623;SDS011;10471;42.736;23.346;2023-12-29T10:05:37;79.00;;;47.57;;
20623;SDS011;10471;42.736;23.346;2023-12-29T10:08:02;82.17;;;44.63;;
20623;SDS011;10471;42.736;23.346;2023-12-29T10:10:30;78.27;;;44.63;;
20623;SDS011;10471;42.736;23.346;2023-12-29T10:12:56;86.40;;;47.50;;
20623;SDS011;10471;42.736;23.346;2023-12-29T10:18:05;82.30;;;48.33;;
20623;SDS011;10471;42.736;23.346;2023-12-29T10:20:48;85.57;;;49.80;;
20623;SDS011;10471;42.736;23.346;2023-12-29T10:23:28;89.17;;;52.97;;
20623;SDS011;10471;42.736;23.346;2023-12-29T10:25:56;101.87;;;55.03;;
20623;SDS011;10471;42.736;23.346;2023-12-29T10:28:22;105.20;;;58.67;;
20623;SDS011;10471;42.736;23.346;2023-12-29T10:30:48;100.47;;;56.80;;
20623;SDS011;10471;42.736;23.346;2023-12-29T10:33:18;100.23;;;57.20;;
20623;SDS011;10471;42.736;23.346;2023-12-29T10:35:56;106.33;;;60.27;;
20623;SDS011;10471;42.736;23.346;2023-12-29T10:38:30;93.70;;;55.33;;
20623;SDS011;10471;42.736;23.346;2023-12-29T10:41:14;91.63;;;55.10;;
20623;SDS011;10471;42.736;23.346;2023-12-29T10:43:42;95.03;;;55.70;;
20623;SDS011;10471;42.736;23.346;2023-12-29T10:46:09;97.50;;;57.60;;
20623;SDS011;10471;42.736;23.346;2023-12-29T10:48:36;101.23;;;59.77;;
20623;SDS011;10471;42.736;23.346;2023-12-29T10:51:03;94.03;;;56.63;;
20623;SDS011;10471;42.736;23.346;2023-12-29T10:53:29;99.50;;;58.83;;
20623;SDS011;10471;42.736;23.346;2023-12-29T10:55:56;104.37;;;59.63;;
20623;SDS011;10471;42.736;23.346;2023-12-29T10:58:23;102.70;;;61.57;;
20623;SDS011;10471;42.736;23.346;2023-12-29T11:00:52;94.77;;;56.63;;
20623;SDS011;10471;42.736;23.346;2023-12-29T11:03:18;92.70;;;54.63;;
20623;SDS011;10471;42.736;23.346;2023-12-29T11:05:44;76.13;;;49.50;;
20623;SDS011;10471;42.736;23.346;2023-12-29T11:08:19;80.20;;;50.53;;
20623;SDS011;10471;42.736;23.346;2023-12-29T11:10:47;82.13;;;48.67;;
20623;SDS011;10471;42.736;23.346;2023-12-29T11:13:13;77.33;;;48.13;;
20623;SDS011;10471;42.736;23.346;2023-12-29T11:15:43;72.93;;;46.07;;
20623;SDS011;10471;42.736;23.346;2023-12-29T11:18:14;74.77;;;46.00;;
20623;SDS011;10471;42.736;23.346;2023-12-29T11:20:41;66.73;;;44.57;;
20623;SDS011;10471;42.736;23.346;2023-12-29T11:23:08;117.27;;;64.47;;
20623;SDS011;10471;42.736;23.346;2023-12-29T11:25:35;73.40;;;46.97;;
20623;SDS011;10471;42.736;23.346;2023-12-29T11:28:01;67.27;;;43.33;;
20623;SDS011;10471;42.736;23.346;2023-12-29T11:30:27;65.30;;;43.07;;
20623;SDS011;10471;42.736;23.346;2023-12-29T11:43:58;62.57;;;42.43;;
20623;SDS011;10471;42.736;23.346;2023-12-29T11:49:03;68.00;;;46.97;;
20623;SDS011;10471;42.736;23.346;2023-12-29T11:51:34;63.07;;;41.53;;
20623;SDS011;10471;42.736;23.346;2023-12-29T11:54:08;59.50;;;38.40;;
20623;SDS011;10471;42.736;23.346;2023-12-29T11:56:37;58.03;;;38.63;;
20623;SDS011;10471;42.736;23.346;2023-12-29T12:01:38;55.10;;;37.03;;
20623;SDS011;10471;42.736;23.346;2023-12-29T12:04:04;56.70;;;38.40;;
20623;SDS011;10471;42.736;23.346;2023-12-29T12:06:39;60.40;;;40.00;;
20623;SDS011;10471;42.736;23.346;2023-12-29T12:09:21;57.77;;;39.47;;
20623;SDS011;10471;42.736;23.346;2023-12-29T12:11:48;70.07;;;46.67;;
20623;SDS011;10471;42.736;23.346;2023-12-29T12:17:12;70.23;;;48.80;;
20623;SDS011;10471;42.736;23.346;2023-12-29T12:19:51;75.30;;;48.53;;
20623;SDS011;10471;42.736;23.346;2023-12-29T12:22:18;68.83;;;47.27;;
20623;SDS011;10471;42.736;23.346;2023-12-29T12:24:44;63.83;;;43.17;;
20623;SDS011;10471;42.736;23.346;2023-12-29T12:27:10;69.00;;;43.07;;
20623;SDS011;10471;42.736;23.346;2023-12-29T12:29:36;67.57;;;43.80;;
20623;SDS011;10471;42.736;23.346;2023-12-29T12:32:01;64.43;;;43.50;;
20623;SDS011;10471;42.736;23.346;2023-12-29T12:34:27;63.50;;;42.37;;
20623;SDS011;10471;42.736;23.346;2023-12-29T12:37:02;69.67;;;44.90;;
20623;SDS011;10471;42.736;23.346;2023-12-29T12:39:38;60.30;;;42.67;;
20623;SDS011;10471;42.736;23.346;2023-12-29T12:42:05;64.33;;;43.37;;
20623;SDS011;10471;42.736;23.346;2023-12-29T12:44:30;68.23;;;42.83;;
20623;SDS011;10471;42.736;23.346;2023-12-29T12:46:57;68.40;;;44.23;;
20623;SDS011;10471;42.736;23.346;2023-12-29T12:49:24;71.97;;;42.90;;
20623;SDS011;10471;42.736;23.346;2023-12-29T12:51:50;69.60;;;46.63;;
20623;SDS011;10471;42.736;23.346;2023-12-29T12:54:17;77.57;;;46.47;;
20623;SDS011;10471;42.736;23.346;2023-12-29T12:56:44;70.57;;;45.63;;
20623;SDS011;10471;42.736;23.346;2023-12-29T12:59:10;65.43;;;42.67;;
20623;SDS011;10471;42.736;23.346;2023-12-29T13:01:36;62.30;;;44.00;;
20623;SDS011;10471;42.736;23.346;2023-12-29T13:04:03;63.00;;;42.03;;
20623;SDS011;10471;42.736;23.346;2023-12-29T13:06:30;67.50;;;44.67;;
20623;SDS011;10471;42.736;23.346;2023-12-29T13:08:57;67.67;;;45.43;;
20623;SDS011;10471;42.736;23.346;2023-12-29T13:11:23;68.97;;;44.20;;
20623;SDS011;10471;42.736;23.346;2023-12-29T13:13:52;70.57;;;45.27;;
20623;SDS011;10471;42.736;23.346;2023-12-29T13:16:32;68.57;;;45.77;;
20623;SDS011;10471;42.736;23.346;2023-12-29T13:21:51;70.23;;;45.17;;
20623;SDS011;10471;42.736;23.346;2023-12-29T13:24:21;64.57;;;43.47;;
20623;SDS011;10471;42.736;23.346;2023-12-29T13:26:47;65.40;;;44.47;;
20623;SDS011;10471;42.736;23.346;2023-12-29T13:29:17;66.10;;;43.20;;
20623;SDS011;10471;42.736;23.346;2023-12-29T13:31:44;70.97;;;45.73;;
20623;SDS011;10471;42.736;23.346;2023-12-29T13:34:12;65.47;;;44.00;;
20623;SDS011;10471;42.736;23.346;2023-12-29T13:36:50;64.10;;;40.77;;
20623;SDS011;10471;42.736;23.346;2023-12-29T13:39:39;63.67;;;41.10;;
20623;SDS011;10471;42.736;23.346;2023-12-29T13:42:10;65.10;;;43.07;;
20623;SDS011;10471;42.736;23.346;2023-12-29T13:44:39;64.23;;;42.23;;
20623;SDS011;10471;42.736;23.346;2023-12-29T13:47:07;64.03;;;39.70;;
20623;SDS011;10471;42.736;23.346;2023-12-29T13:49:33;57.77;;;37.30;;
20623;SDS011;10471;42.736;23.346;2023-12-29T13:52:02;60.83;;;40.13;;
20623;SDS011;10471;42.736;23.346;2023-12-29T13:54:28;59.27;;;39.13;;
20623;SDS011;10471;42.736;23.346;2023-12-29T13:56:54;59.43;;;39.63;;
20623;SDS011;10471;42.736;23.346;2023-12-29T13:59:29;58.67;;;38.80;;
20623;SDS011;10471;42.736;23.346;2023-12-29T14:01:58;63.17;;;39.37;;
20623;SDS011;10471;42.736;23.346;2023-12-29T14:04:24;55.50;;;38.57;;
20623;SDS011;10471;42.736;23.346;2023-12-29T14:06:51;62.03;;;37.97;;
20623;SDS011;10471;42.736;23.346;2023-12-29T14:09:20;57.37;;;37.40;;
20623;SDS011;10471;42.736;23.346;2023-12-29T14:11:48;54.83;;;35.27;;
20623;SDS011;10471;42.736;23.346;2023-12-29T14:14:21;54.00;;;35.20;;
20623;SDS011;10471;42.736;23.346;2023-12-29T14:16:50;66.07;;;40.93;;
20623;SDS011;10471;42.736;23.346;2023-12-29T14:19:16;67.43;;;40.70;;
20623;SDS011;10471;42.736;23.346;2023-12-29T14:21:41;57.50;;;40.77;;
20623;SDS011;10471;42.736;23.346;2023-12-29T14:24:11;62.07;;;39.73;;